Time;durP1;ratioP1;P1;durP2;ratioP2;P2;SDS_P1;SDS_P2;PMS_P1;PMS_P2;Temp;Humidity;BMP_temperature;BMP_pressure;BME280_temperature;BME280_humidity;BME280_pressure;Samples;Min_cycle;Max_cycle;Signal;HPM_P1;HPM_P2
2021/04/03 00:00:10;;;;;;;7.18;6.10;;;;;;;6.52;100.00;96457.78;5016323;28;20092;-45
2021/04/03 00:02:38;;;;;;;8.65;6.85;;;;;;;6.43;100.00;96454.06;4984078;28;20068;-51
2021/04/03 00:05:07;;;;;;;7.63;6.07;;;;;;;6.14;100.00;96451.91;5035763;28;20327;-47
2021/04/03 00:07:35;;;;;;;8.55;6.60;;;;;;;6.02;100.00;96455.50;5010093;28;20061;-49
2021/04/03 00:10:06;;;;;;;8.57;6.80;;;;;;;6.04;100.00;96450.13;5019021;28;20076;-47
2021/04/03 00:12:33;;;;;;;8.82;6.55;;;;;;;6.00;100.00;96441.66;4998961;28;20536;-48
2021/04/03 00:15:01;;;;;;;8.45;6.88;;;;;;;5.91;100.00;96439.72;5029443;28;20446;-51
2021/04/03 00:17:28;;;;;;;8.35;6.75;;;;;;;5.82;100.00;96443.88;5009867;28;20081;-48
2021/04/03 00:19:55;;;;;;;8.00;6.43;;;;;;;5.82;100.00;96446.50;5020664;28;20069;-50
2021/04/03 00:22:23;;;;;;;8.70;6.75;;;;;;;5.79;100.00;96441.47;5003669;28;20538;-52
2021/04/03 00:24:51;;;;;;;10.10;6.88;;;;;;;5.86;100.00;96444.47;5033523;28;20073;-48
2021/04/03 00:27:19;;;;;;;8.05;7.05;;;;;;;5.83;100.00;96439.47;5009636;28;20065;-49
2021/04/03 00:29:47;;;;;;;8.50;6.90;;;;;;;5.96;100.00;96437.63;5039537;28;20080;-51
2021/04/03 00:32:14;;;;;;;8.82;6.57;;;;;;;6.06;100.00;96443.81;5022801;28;20711;-50
2021/04/03 00:34:42;;;;;;;8.68;7.07;;;;;;;5.75;100.00;96444.44;5021155;28;20065;-50
2021/04/03 00:37:09;;;;;;;8.95;6.75;;;;;;;5.84;100.00;96434.09;5006035;28;20065;-52
2021/04/03 00:39:36;;;;;;;11.18;7.30;;;;;;;5.84;100.00;96441.13;5023073;28;20061;-48
2021/04/03 00:42:15;;;;;;;9.55;7.38;;;;;;;5.71;100.00;96435.97;5032697;28;20066;-48
2021/04/03 00:44:47;;;;;;;8.27;6.63;;;;;;;5.86;100.00;96437.44;5035208;28;20092;-48
2021/04/03 00:47:15;;;;;;;7.78;6.47;;;;;;;5.75;100.00;96440.06;5031337;28;20093;-49
2021/04/03 00:49:43;;;;;;;9.00;6.90;;;;;;;5.84;100.00;96431.50;5005635;28;20137;-53
2021/04/03 00:52:12;;;;;;;7.97;6.25;;;;;;;5.76;100.00;96440.88;5027999;28;20072;-51
2021/04/03 00:54:40;;;;;;;6.73;5.77;;;;;;;5.65;100.00;96444.31;4998675;28;20766;-49
2021/04/03 00:57:09;;;;;;;7.28;5.82;;;;;;;5.47;100.00;96452.56;5032810;28;20069;-49
2021/04/03 00:59:37;;;;;;;8.65;6.43;;;;;;;5.41;100.00;96462.66;5004412;28;20491;-51
2021/04/03 01:02:06;;;;;;;9.02;6.20;;;;;;;5.40;100.00;96460.97;5023610;28;20642;-48
2021/04/03 01:04:34;;;;;;;9.02;7.15;;;;;;;5.46;100.00;96458.72;4997875;28;20067;-48
2021/04/03 01:07:02;;;;;;;8.60;6.80;;;;;;;5.60;100.00;96462.94;5026589;28;20487;-49
2021/04/03 01:09:29;;;;;;;7.60;6.53;;;;;;;5.71;100.00;96463.00;4991549;28;20061;-49
2021/04/03 01:12:01;;;;;;;10.90;6.25;;;;;;;5.60;100.00;96464.72;5027028;28;20092;-48
2021/04/03 01:14:33;;;;;;;7.07;5.15;;;;;;;5.59;100.00;96463.91;5004033;28;20091;-53
2021/04/03 01:17:08;;;;;;;6.75;5.57;;;;;;;5.60;100.00;96464.72;5031593;28;20073;-50
2021/04/03 01:20:04;;;;;;;8.90;5.78;;;;;;;5.63;100.00;96467.13;5011577;28;20068;-48
2021/04/03 01:23:20;;;;;;;6.40;4.45;;;;;;;5.58;100.00;96470.09;5024124;28;20308;-48
2021/04/03 01:25:55;;;;;;;5.60;4.38;;;;;;;5.50;100.00;96466.34;4991854;28;20070;-52
2021/04/03 01:28:40;;;;;;;7.90;4.28;;;;;;;5.51;100.00;96468.03;5030809;28;20072;-48
2021/04/03 01:31:08;;;;;;;10.23;6.50;;;;;;;5.51;100.00;96478.50;5001823;28;20542;-51
2021/04/03 01:33:38;;;;;;;5.63;4.93;;;;;;;5.52;100.00;96490.63;5018621;28;20561;-49
2021/04/03 01:36:12;;;;;;;9.23;7.13;;;;;;;5.53;100.00;96484.44;5008903;28;20466;-48
2021/04/03 01:38:43;;;;;;;8.50;6.18;;;;;;;5.50;100.00;96485.50;5023501;28;20518;-52
2021/04/03 01:41:12;;;;;;;8.18;6.13;;;;;;;5.46;100.00;96490.13;5000910;28;20547;-52
2021/04/03 01:43:42;;;;;;;9.13;6.28;;;;;;;5.37;100.00;96503.06;5033791;28;20071;-49
2021/04/03 01:46:10;;;;;;;8.80;6.10;;;;;;;5.36;100.00;96491.72;5002494;28;20068;-47
2021/04/03 01:48:38;;;;;;;10.02;7.05;;;;;;;5.31;100.00;96493.84;5031124;28;20421;-50
2021/04/03 01:51:06;;;;;;;6.20;5.05;;;;;;;5.31;100.00;96498.25;5003625;28;20081;-53
2021/04/03 01:53:34;;;;;;;8.27;6.05;;;;;;;5.35;100.00;96502.31;5023280;28;20077;-53
2021/04/03 01:56:02;;;;;;;7.43;6.22;;;;;;;5.28;100.00;96499.31;4997507;28;20076;-52
2021/04/03 01:58:31;;;;;;;10.20;6.85;;;;;;;5.44;100.00;96499.03;5035123;28;20072;-50
2021/04/03 02:00:59;;;;;;;11.35;6.50;;;;;;;5.36;100.00;96507.41;4999123;28;20069;-47
2021/04/03 02:03:27;;;;;;;8.00;6.00;;;;;;;5.27;100.00;96496.81;5027598;28;20073;-52
2021/04/03 02:05:55;;;;;;;10.65;7.10;;;;;;;5.34;100.00;96501.50;5001250;28;20081;-55
2021/04/03 02:08:24;;;;;;;10.27;7.43;;;;;;;5.26;100.00;96495.13;5019016;28;20084;-48
2021/04/03 02:10:52;;;;;;;10.18;6.80;;;;;;;5.36;100.00;96498.75;5005632;28;20057;-49
2021/04/03 02:13:20;;;;;;;10.45;6.88;;;;;;;5.36;100.00;96491.72;5025023;28;20562;-50
2021/04/03 02:15:48;;;;;;;11.65;6.75;;;;;;;5.33;100.00;96493.72;5019792;28;20077;-46
2021/04/03 02:18:17;;;;;;;10.35;7.45;;;;;;;5.30;100.00;96492.19;5019425;28;20535;-50
2021/04/03 02:20:45;;;;;;;10.60;7.70;;;;;;;5.30;100.00;96494.81;5017456;28;20084;-53
2021/04/03 02:23:13;;;;;;;7.82;6.00;;;;;;;5.18;100.00;96488.69;5001291;28;20088;-55
2021/04/03 02:25:41;;;;;;;8.32;6.22;;;;;;;5.18;100.00;96498.31;5030661;28;20068;-54
2021/04/03 02:28:08;;;;;;;7.78;5.40;;;;;;;5.07;100.00;96490.41;4994204;28;20069;-49
2021/04/03 02:30:36;;;;;;;11.30;5.55;;;;;;;5.04;100.00;96496.69;5022723;28;20068;-48
2021/04/03 02:33:03;;;;;;;10.00;6.45;;;;;;;5.04;100.00;96486.22;5000710;28;20069;-50
2021/04/03 02:35:31;;;;;;;10.13;6.30;;;;;;;4.98;100.00;96489.25;5028595;28;20111;-52
2021/04/03 02:38:04;;;;;;;8.50;5.88;;;;;;;5.00;100.00;96490.00;5012979;28;20071;-47
2021/04/03 02:40:33;;;;;;;7.95;5.82;;;;;;;5.07;100.00;96485.19;5026576;28;20072;-51
2021/04/03 02:43:04;;;;;;;8.88;5.68;;;;;;;4.92;100.00;96497.53;4997679;28;20077;-50
2021/04/03 02:45:40;;;;;;;10.40;6.43;;;;;;;5.05;100.00;96492.28;5031284;28;20068;-48
2021/04/03 02:48:17;;;;;;;11.65;6.32;;;;;;;5.05;100.00;96489.66;5002556;28;20060;-53
2021/04/03 02:50:46;;;;;;;8.18;5.55;;;;;;;4.95;100.00;96492.94;5023062;28;20078;-55
2021/04/03 02:53:15;;;;;;;11.20;5.97;;;;;;;4.96;100.00;96497.22;5004603;28;20085;-50
2021/04/03 02:55:46;;;;;;;7.13;5.55;;;;;;;4.98;100.00;96490.09;5023044;28;20076;-52
2021/04/03 02:58:17;;;;;;;8.45;6.00;;;;;;;5.05;100.00;96492.28;5006185;28;20070;-53
2021/04/03 03:00:44;;;;;;;;;;;;;;;5.04;100.00;96493.22;5031234;28;20466;-50
2021/04/03 03:03:12;;;;;;;10.52;5.60;;;;;;;5.11;100.00;96494.47;5003075;28;19964;-54
2021/04/03 03:05:41;;;;;;;8.57;5.53;;;;;;;4.99;100.00;96494.41;5021473;28;20083;-51
2021/04/03 03:08:08;;;;;;;9.13;5.55;;;;;;;5.14;100.00;96489.00;4991204;28;20096;-53
2021/04/03 03:10:37;;;;;;;9.35;5.68;;;;;;;5.21;100.00;96490.25;5027129;28;20061;-52
2021/04/03 03:13:07;;;;;;;10.95;6.13;;;;;;;5.21;100.00;96500.69;5007094;28;20072;-45
2021/04/03 03:15:34;;;;;;;7.82;5.38;;;;;;;5.27;100.00;96495.03;5019425;28;20669;-51
2021/04/03 03:18:02;;;;;;;12.57;5.90;;;;;;;5.27;100.00;96495.03;5036314;28;20061;-51
2021/04/03 03:20:30;;;;;;;9.20;5.90;;;;;;;5.32;100.00;96492.06;5008969;28;20080;-52
2021/04/03 03:22:58;;;;;;;8.93;5.35;;;;;;;5.20;100.00;96493.81;5024502;28;20061;-47
2021/04/03 03:25:26;;;;;;;8.18;5.30;;;;;;;5.17;100.00;96487.03;5007613;28;20087;-51
2021/04/03 03:27:55;;;;;;;7.57;5.80;;;;;;;5.28;100.00;96495.88;5021914;28;20467;-53
2021/04/03 03:30:23;;;;;;;6.35;4.80;;;;;;;5.22;100.00;96492.72;5005213;28;20068;-51
2021/04/03 03:32:50;;;;;;;8.95;5.85;;;;;;;5.27;100.00;96497.66;5027503;28;20536;-52
2021/04/03 03:35:18;;;;;;;8.88;5.82;;;;;;;5.30;100.00;96497.44;5003441;28;20931;-46
2021/04/03 03:37:46;;;;;;;8.38;5.75;;;;;;;5.12;100.00;96501.34;5038670;28;20535;-50
2021/04/03 03:40:15;;;;;;;8.50;5.50;;;;;;;5.21;100.00;96492.84;5000543;28;20061;-48
2021/04/03 03:42:43;;;;;;;8.02;5.28;;;;;;;5.16;100.00;96497.56;5021640;28;20065;-49
2021/04/03 03:45:35;;;;;;;8.82;4.63;;;;;;;5.17;100.00;96500.09;5002240;28;20072;-51
2021/04/03 03:48:03;;;;;;;6.63;5.00;;;;;;;5.04;100.00;96517.59;5025995;28;20085;-49
2021/04/03 03:50:30;;;;;;;5.82;4.45;;;;;;;4.96;100.00;96512.91;4997212;28;20512;-50
2021/04/03 03:52:58;;;;;;;9.60;5.70;;;;;;;5.03;100.00;96504.66;5022872;28;20069;-53
2021/04/03 03:55:25;;;;;;;8.88;5.95;;;;;;;4.94;100.00;96516.56;5000829;28;20068;-49
2021/04/03 03:57:53;;;;;;;8.05;5.30;;;;;;;4.98;100.00;96518.00;5030232;28;20104;-50
2021/04/03 04:00:20;;;;;;;9.40;5.57;;;;;;;4.98;100.00;96512.78;4999817;28;20071;-47
2021/04/03 04:02:49;;;;;;;7.55;5.28;;;;;;;4.91;100.00;96512.38;5020381;28;20088;-50
2021/04/03 04:05:16;;;;;;;8.50;5.57;;;;;;;4.99;100.00;96514.47;5006096;28;20064;-51
2021/04/03 04:07:44;;;;;;;11.25;5.60;;;;;;;4.81;100.00;96516.59;5035930;28;20091;-48
2021/04/03 04:10:13;;;;;;;8.02;5.85;;;;;;;4.80;100.00;96514.94;5013595;28;20065;-49
2021/04/03 04:12:41;;;;;;;9.80;5.97;;;;;;;4.86;100.00;96518.91;5028789;28;20080;-52
2021/04/03 04:15:09;;;;;;;10.23;5.75;;;;;;;4.91;100.00;96517.59;5029170;28;20079;-48
2021/04/03 04:17:36;;;;;;;9.07;5.93;;;;;;;4.96;100.00;96510.28;4999902;28;20085;-50
2021/04/03 04:20:05;;;;;;;10.02;6.50;;;;;;;4.84;100.00;96519.00;5036842;28;20292;-49
2021/04/03 04:22:33;;;;;;;8.70;5.93;;;;;;;4.85;100.00;96518.06;4993896;28;20080;-47
2021/04/03 04:25:00;;;;;;;8.73;6.13;;;;;;;4.78;100.00;96515.97;5025716;28;20069;-48
2021/04/03 04:27:28;;;;;;;7.75;6.03;;;;;;;4.93;100.00;96518.34;5008948;28;20060;-47
2021/04/03 04:29:55;;;;;;;10.88;5.65;;;;;;;4.75;100.00;96517.88;5016160;28;20080;-52
2021/04/03 04:32:23;;;;;;;9.52;6.03;;;;;;;4.79;100.00;96533.34;5009164;28;20073;-52
2021/04/03 04:34:50;;;;;;;10.25;6.45;;;;;;;4.82;100.00;96538.31;5035339;28;20061;-51
2021/04/03 04:37:19;;;;;;;6.97;5.68;;;;;;;4.63;100.00;96541.38;5001529;28;20079;-52
2021/04/03 04:39:46;;;;;;;11.27;6.03;;;;;;;4.68;100.00;96545.38;5034948;28;20062;-47
2021/04/03 04:42:13;;;;;;;11.20;6.07;;;;;;;4.66;100.00;96547.22;4999657;28;20072;-53
2021/04/03 04:44:41;;;;;;;10.23;6.55;;;;;;;4.74;100.00;96555.38;5028337;28;20476;-52
2021/04/03 04:47:08;;;;;;;11.00;6.20;;;;;;;4.61;100.00;96551.09;5006914;28;20077;-53
2021/04/03 04:49:35;;;;;;;9.20;6.50;;;;;;;4.50;100.00;96563.09;5027952;28;20095;-53
2021/04/03 04:52:03;;;;;;;9.13;6.60;;;;;;;4.63;100.00;96567.50;5006727;28;20061;-53
2021/04/03 04:54:32;;;;;;;12.02;7.05;;;;;;;4.40;100.00;96569.91;5035769;28;20127;-50
2021/04/03 04:56:59;;;;;;;8.05;5.50;;;;;;;4.55;100.00;96581.09;5027219;28;20073;-53
2021/04/03 04:59:27;;;;;;;9.43;5.72;;;;;;;4.68;100.00;96576.72;5018374;28;20575;-55
2021/04/03 05:01:54;;;;;;;10.38;6.50;;;;;;;4.56;100.00;96577.53;5030003;28;20460;-51
2021/04/03 05:04:22;;;;;;;13.13;5.85;;;;;;;4.44;100.00;96587.06;4997472;28;20484;-55
2021/04/03 05:06:49;;;;;;;10.15;6.00;;;;;;;4.50;100.00;96597.06;5032041;28;20084;-50
2021/04/03 05:09:17;;;;;;;10.50;6.03;;;;;;;4.49;100.00;96600.63;4998971;28;20069;-53
2021/04/03 05:11:46;;;;;;;4.60;3.85;;;;;;;4.29;100.00;96604.56;5024893;28;20085;-48
2021/04/03 05:14:13;;;;;;;11.95;5.32;;;;;;;4.24;100.00;96598.81;5009586;28;20432;-49
2021/04/03 05:16:41;;;;;;;10.10;4.95;;;;;;;4.23;100.00;96602.38;5021091;28;20072;-50
2021/04/03 05:19:08;;;;;;;9.48;5.32;;;;;;;4.38;100.00;96603.13;4999669;28;20066;-49
2021/04/03 05:21:36;;;;;;;11.40;5.35;;;;;;;4.31;100.00;96604.47;5004204;28;20065;-51
2021/04/03 05:24:04;;;;;;;9.15;4.90;;;;;;;4.18;100.00;96607.06;4999489;28;20065;-54
2021/04/03 05:26:31;;;;;;;10.88;4.75;;;;;;;4.16;100.00;96613.31;5041137;28;20210;-50
2021/04/03 05:29:00;;;;;;;8.85;4.82;;;;;;;4.19;100.00;96611.31;5002556;28;20065;-50
2021/04/03 05:31:27;;;;;;;6.82;4.85;;;;;;;4.25;100.00;96618.75;5024658;28;20065;-49
2021/04/03 05:33:55;;;;;;;7.68;4.80;;;;;;;4.23;100.00;96625.00;4998210;28;20061;-53
2021/04/03 05:36:22;;;;;;;9.55;5.22;;;;;;;4.35;100.00;96628.59;5005303;28;20568;-50
2021/04/03 05:38:50;;;;;;;8.77;4.05;;;;;;;4.37;100.00;96630.19;5008050;28;20530;-52
2021/04/03 05:41:17;;;;;;;10.60;5.57;;;;;;;4.54;100.00;96631.63;5027012;28;20065;-56
2021/04/03 05:43:46;;;;;;;8.85;4.65;;;;;;;4.28;100.00;96636.00;5026477;28;20069;-51
2021/04/03 05:46:18;;;;;;;8.50;4.80;;;;;;;4.33;100.00;96631.28;5007874;28;20334;-52
2021/04/03 05:48:46;;;;;;;8.73;4.70;;;;;;;4.37;100.00;96632.78;5031533;28;20065;-51
2021/04/03 05:51:14;;;;;;;8.48;4.88;;;;;;;4.49;100.00;96634.56;4998556;28;20061;-54
2021/04/03 05:53:42;;;;;;;7.80;4.72;;;;;;;4.59;100.00;96633.97;5028027;28;20068;-48
2021/04/03 05:56:10;;;;;;;5.65;4.47;;;;;;;4.75;100.00;96629.38;5005024;28;20503;-51
2021/04/03 05:58:37;;;;;;;6.93;4.85;;;;;;;4.86;100.00;96636.47;5030382;28;20519;-49
2021/04/03 06:01:05;;;;;;;7.20;4.20;;;;;;;4.79;100.00;96641.28;5001229;28;20065;-49
2021/04/03 06:03:34;;;;;;;8.52;4.50;;;;;;;4.92;100.00;96638.63;5022330;28;20072;-54
2021/04/03 06:06:02;;;;;;;6.72;4.13;;;;;;;4.87;100.00;96646.81;5020747;28;20061;-53
2021/04/03 06:08:30;;;;;;;11.23;4.93;;;;;;;5.06;100.00;96655.97;5021245;28;20077;-53
2021/04/03 06:11:19;;;;;;;6.32;4.35;;;;;;;4.74;100.00;96659.84;5002053;28;20069;-52
2021/04/03 06:14:05;;;;;;;6.72;3.92;;;;;;;4.95;100.00;96659.34;5031974;28;20068;-53
2021/04/03 06:16:33;;;;;;;9.02;4.97;;;;;;;4.92;100.00;96673.47;5007036;28;20068;-53
2021/04/03 06:19:14;;;;;;;6.63;4.70;;;;;;;5.04;100.00;96671.78;5025247;28;20073;-51
2021/04/03 06:21:43;;;;;;;8.40;4.72;;;;;;;5.10;100.00;96676.59;4992792;28;20057;-51
2021/04/03 06:24:25;;;;;;;11.95;5.03;;;;;;;5.56;100.00;96669.94;5024022;28;20451;-51
2021/04/03 06:27:00;;;;;;;8.02;5.30;;;;;;;5.76;100.00;96669.34;4991086;28;20081;-49
2021/04/03 06:29:44;;;;;;;6.10;4.78;;;;;;;6.09;100.00;96675.72;5034462;28;20561;-47
2021/04/03 06:32:25;;;;;;;5.68;4.38;;;;;;;5.86;97.59;96678.22;4997995;28;20080;-49
2021/04/03 06:34:54;;;;;;;7.85;4.43;;;;;;;6.04;95.64;96685.72;5022602;28;20518;-49
2021/04/03 06:37:26;;;;;;;6.53;4.43;;;;;;;5.92;97.33;96679.56;5008397;28;20064;-54
2021/04/03 06:39:56;;;;;;;7.22;4.03;;;;;;;5.87;96.15;96694.75;5026732;28;20072;-51
2021/04/03 06:42:38;;;;;;;6.65;4.30;;;;;;;6.16;98.56;96690.91;4988437;28;20068;-55
2021/04/03 06:45:21;;;;;;;5.07;4.00;;;;;;;6.25;93.20;96683.31;5039021;28;20436;-51
2021/04/03 06:47:50;;;;;;;5.15;3.58;;;;;;;6.10;93.89;96691.34;5007101;28;20072;-49
2021/04/03 06:50:20;;;;;;;9.35;4.03;;;;;;;6.28;94.40;96688.34;5029369;28;20085;-52
2021/04/03 06:52:48;;;;;;;10.27;4.13;;;;;;;6.22;90.89;96692.22;5002119;28;20163;-48
2021/04/03 06:55:21;;;;;;;4.60;3.00;;;;;;;6.14;92.80;96694.56;5019312;28;20073;-48
2021/04/03 06:57:49;;;;;;;7.80;3.60;;;;;;;6.24;92.29;96700.81;4997996;28;20511;-48
2021/04/03 07:00:18;;;;;;;4.22;3.55;;;;;;;6.12;89.47;96704.31;5029637;28;20061;-49
2021/04/03 07:02:53;;;;;;;4.70;4.05;;;;;;;6.08;90.67;96695.84;4996819;28;20080;-49
2021/04/03 07:05:23;;;;;;;7.93;4.55;;;;;;;6.40;90.46;96701.38;5037697;28;20545;-51
2021/04/03 07:07:50;;;;;;;6.55;4.13;;;;;;;6.55;94.39;96694.16;5003638;28;20088;-48
2021/04/03 07:10:18;;;;;;;6.50;4.22;;;;;;;6.60;90.25;96704.28;5019389;28;20700;-51
2021/04/03 07:13:06;;;;;;;8.00;3.92;;;;;;;6.74;86.25;96701.47;5006089;28;20077;-49
2021/04/03 07:15:34;;;;;;;4.55;3.50;;;;;;;6.49;84.56;96710.31;5026083;28;20069;-53
2021/04/03 07:18:02;;;;;;;3.90;3.50;;;;;;;6.59;81.48;96710.47;5003439;28;20069;-55
2021/04/03 07:20:34;;;;;;;5.32;4.07;;;;;;;6.66;84.33;96712.53;5036276;28;20188;-51
2021/04/03 07:23:02;;;;;;;;;;;;;;;6.89;82.07;96709.97;5004382;28;20095;-45
2021/04/03 07:25:30;;;;;;;5.32;4.03;;;;;;;7.33;77.97;96701.34;5033095;28;19960;-49
2021/04/03 07:28:03;;;;;;;6.82;3.90;;;;;;;7.13;79.79;96723.84;5007485;28;20475;-49
2021/04/03 07:30:44;;;;;;;5.53;4.10;;;;;;;7.33;78.35;96714.47;5030788;28;20089;-49
2021/04/03 07:33:13;;;;;;;6.05;3.97;;;;;;;7.46;75.97;96714.34;5013284;28;20076;-47
2021/04/03 07:35:46;;;;;;;11.35;4.70;;;;;;;7.30;74.83;96724.34;5024144;28;20077;-47
2021/04/03 07:38:16;;;;;;;8.32;3.88;;;;;;;7.03;78.81;96719.44;5033730;28;20093;-47
2021/04/03 07:40:45;;;;;;;6.63;4.55;;;;;;;7.51;77.86;96732.38;5007729;28;20071;-49
2021/04/03 07:43:49;;;;;;;7.97;4.38;;;;;;;7.80;72.02;96730.91;5014603;28;20456;-47
2021/04/03 07:46:37;;;;;;;10.52;6.03;;;;;;;8.02;68.01;96731.84;5037135;28;20088;-49
2021/04/03 07:49:05;;;;;;;6.72;4.43;;;;;;;8.06;67.53;96726.22;5002428;28;20451;-47
2021/04/03 07:51:47;;;;;;;8.35;4.80;;;;;;;8.21;65.23;96724.16;5041525;28;20452;-45
2021/04/03 07:54:31;;;;;;;6.85;3.85;;;;;;;7.98;64.64;96731.25;5000713;28;21080;-47
2021/04/03 07:57:02;;;;;;;6.18;3.60;;;;;;;7.45;66.89;96735.44;5023132;28;20080;-46
2021/04/03 07:59:48;;;;;;;6.28;4.07;;;;;;;7.97;64.25;96734.00;5014148;28;20096;-47
2021/04/03 08:02:17;;;;;;;6.68;3.75;;;;;;;8.25;64.04;96743.13;5039121;28;20064;-48
2021/04/03 08:04:45;;;;;;;6.03;4.18;;;;;;;8.25;60.39;96738.69;5001600;28;20072;-47
2021/04/03 08:07:13;;;;;;;6.72;4.07;;;;;;;8.59;62.06;96743.91;5040541;28;20072;-49
2021/04/03 08:09:41;;;;;;;9.25;3.78;;;;;;;8.97;64.15;96737.28;4999038;28;20072;-49
2021/04/03 08:12:09;;;;;;;8.98;4.00;;;;;;;8.19;65.54;96731.34;5026120;28;20070;-47
2021/04/03 08:14:37;;;;;;;4.47;3.78;;;;;;;8.76;65.17;96734.63;5022360;28;20081;-48
2021/04/03 08:17:08;;;;;;;7.38;3.88;;;;;;;8.06;65.55;96752.50;5005712;28;20486;-47
2021/04/03 08:19:36;;;;;;;5.22;3.40;;;;;;;7.77;64.22;96753.94;5019361;28;20061;-47
2021/04/03 08:22:08;;;;;;;6.13;4.13;;;;;;;7.87;64.64;96761.94;5005899;28;20076;-51
2021/04/03 08:24:37;;;;;;;7.13;4.20;;;;;;;8.08;65.44;96754.97;5028168;28;20107;-47
2021/04/03 08:27:05;;;;;;;7.75;4.47;;;;;;;8.25;65.07;96751.84;5000009;28;20081;-46
2021/04/03 08:29:36;;;;;;;7.95;3.83;;;;;;;8.16;62.22;96749.97;5043638;28;20084;-47
2021/04/03 08:32:05;;;;;;;9.27;4.13;;;;;;;8.15;60.98;96760.59;5002612;28;20331;-46
2021/04/03 08:34:33;;;;;;;6.82;4.53;;;;;;;8.85;58.65;96748.81;5038500;28;20075;-54
2021/04/03 08:37:01;;;;;;;7.60;4.90;;;;;;;9.58;56.79;96747.88;5012810;28;20080;-47
2021/04/03 08:39:28;;;;;;;7.35;4.50;;;;;;;9.63;53.60;96748.31;5028048;28;20058;-48
2021/04/03 08:41:58;;;;;;;6.22;4.20;;;;;;;9.91;59.52;96759.09;5008726;28;20076;-47
2021/04/03 08:44:27;;;;;;;7.15;4.72;;;;;;;9.44;56.46;96756.13;5032273;28;20751;-49
2021/04/03 08:46:58;;;;;;;4.80;3.60;;;;;;;8.61;54.35;96757.75;5008952;28;20100;-48
2021/04/03 08:49:28;;;;;;;7.10;4.55;;;;;;;8.46;58.89;96754.56;5031745;28;20072;-48
2021/04/03 08:51:55;;;;;;;6.40;4.05;;;;;;;8.46;57.04;96757.19;5005845;28;20061;-49
2021/04/03 08:54:23;;;;;;;5.53;4.20;;;;;;;8.55;57.29;96758.25;5026492;28;20064;-47
2021/04/03 08:56:50;;;;;;;6.50;4.43;;;;;;;9.03;54.63;96758.63;5007225;28;20081;-49
2021/04/03 08:59:20;;;;;;;9.25;4.18;;;;;;;8.61;54.04;96773.53;5028025;28;20745;-48
2021/04/03 09:01:49;;;;;;;4.53;3.53;;;;;;;8.50;55.31;96763.88;5014174;28;20065;-51
2021/04/03 09:04:19;;;;;;;6.28;4.22;;;;;;;8.67;55.22;96773.03;5036706;28;20114;-48
2021/04/03 09:06:49;;;;;;;6.57;4.60;;;;;;;8.41;54.96;96769.06;5008756;28;20061;-46
2021/04/03 09:09:19;;;;;;;6.10;4.80;;;;;;;8.63;55.45;96774.22;5030683;28;20531;-48
2021/04/03 09:11:54;;;;;;;11.25;4.57;;;;;;;8.83;52.57;96774.41;5010955;28;20065;-48
2021/04/03 09:14:27;;;;;;;6.22;4.30;;;;;;;9.22;52.03;96773.75;5011251;28;20064;-50
2021/04/03 09:16:55;;;;;;;8.15;4.38;;;;;;;8.98;54.62;96776.63;5019667;28;20060;-49
2021/04/03 09:19:30;;;;;;;5.15;4.40;;;;;;;9.41;53.40;96770.38;5004720;28;20068;-49
2021/04/03 09:21:58;;;;;;;5.70;4.13;;;;;;;9.35;53.48;96776.16;5031635;28;20523;-46
2021/04/03 09:24:33;;;;;;;5.13;4.57;;;;;;;9.19;54.64;96778.44;5014089;28;20146;-47
2021/04/03 09:27:12;;;;;;;5.70;4.05;;;;;;;9.11;55.02;96780.84;5026387;28;20073;-48
2021/04/03 09:29:42;;;;;;;8.52;4.38;;;;;;;9.47;52.63;96790.09;5002272;28;20108;-47
2021/04/03 09:32:11;;;;;;;4.43;3.58;;;;;;;9.80;48.96;96780.28;5033326;28;20083;-47
2021/04/03 09:34:39;;;;;;;6.22;3.20;;;;;;;10.10;45.98;96782.06;5002421;28;20068;-50
2021/04/03 09:37:15;;;;;;;3.47;2.97;;;;;;;9.84;45.46;96777.25;5034320;28;20072;-49
2021/04/03 09:39:45;;;;;;;4.35;3.03;;;;;;;10.03;44.36;96787.03;5011805;28;20061;-49
2021/04/03 09:42:13;;;;;;;4.90;3.28;;;;;;;10.64;44.10;96779.03;5025741;28;20072;-49
2021/04/03 09:44:41;;;;;;;2.88;2.55;;;;;;;10.22;44.14;96792.38;5002214;28;20077;-46
2021/04/03 09:47:09;;;;;;;4.60;2.60;;;;;;;10.45;44.06;96786.91;5037458;28;20111;-47
2021/04/03 09:49:38;;;;;;;3.20;2.60;;;;;;;10.17;42.34;96791.94;5006106;28;20107;-48
2021/04/03 09:52:07;;;;;;;2.92;2.50;;;;;;;10.53;42.62;96789.72;5037295;28;20061;-47
2021/04/03 09:54:34;;;;;;;4.15;2.90;;;;;;;10.43;45.86;96802.03;5005675;28;20075;-48
2021/04/03 09:57:03;;;;;;;3.85;2.90;;;;;;;10.50;45.67;96800.53;5024228;28;20077;-48
2021/04/03 09:59:31;;;;;;;6.78;3.30;;;;;;;10.73;45.72;96801.09;5013176;28;20087;-46
2021/04/03 10:02:01;;;;;;;4.60;3.35;;;;;;;10.40;47.04;96810.22;5022848;28;20061;-48
2021/04/03 10:04:28;;;;;;;5.45;2.97;;;;;;;10.13;47.83;96808.97;5011174;28;20471;-47
2021/04/03 10:06:56;;;;;;;5.10;3.13;;;;;;;10.44;45.79;96808.97;5034014;28;20068;-50
2021/04/03 10:09:24;;;;;;;5.30;3.60;;;;;;;10.41;47.71;96806.59;4991328;28;20075;-50
2021/04/03 10:11:52;;;;;;;5.40;3.50;;;;;;;10.49;47.59;96816.47;5017699;28;20073;-50
2021/04/03 10:14:19;;;;;;;4.22;2.67;;;;;;;10.60;46.54;96806.66;5027426;28;20080;-48
2021/04/03 10:16:47;;;;;;;6.32;3.42;;;;;;;10.48;47.04;96813.00;5011694;28;20069;-49
2021/04/03 10:19:15;;;;;;;5.03;3.20;;;;;;;10.43;47.78;96810.78;5042514;28;20080;-49
2021/04/03 10:21:43;;;;;;;5.57;3.75;;;;;;;10.76;49.57;96807.91;5005155;28;20068;-48
2021/04/03 10:24:11;;;;;;;4.65;3.60;;;;;;;10.67;50.83;96817.50;5031539;28;20064;-49
2021/04/03 10:26:38;;;;;;;5.78;3.53;;;;;;;9.90;50.62;96818.03;5017547;28;20088;-47
2021/04/03 10:29:06;;;;;;;6.45;3.75;;;;;;;10.04;50.82;96817.66;5024371;28;20310;-48
2021/04/03 10:31:33;;;;;;;7.25;3.60;;;;;;;9.52;51.81;96817.69;5007414;28;20065;-51
2021/04/03 10:34:00;;;;;;;10.27;4.03;;;;;;;10.18;51.25;96814.66;5033116;28;20065;-55
2021/04/03 10:36:29;;;;;;;5.05;3.78;;;;;;;10.53;48.66;96813.44;5003561;28;20066;-48
2021/04/03 10:38:56;;;;;;;4.55;3.00;;;;;;;10.96;46.95;96804.31;5036894;28;20081;-51
2021/04/03 10:41:23;;;;;;;7.38;3.13;;;;;;;10.47;47.07;96813.97;5004693;28;20080;-46
2021/04/03 10:43:51;;;;;;;5.63;3.40;;;;;;;10.33;46.70;96812.56;5030107;28;20069;-50
2021/04/03 10:46:18;;;;;;;8.95;3.28;;;;;;;10.69;48.47;96810.25;5006406;28;20078;-49
2021/04/03 10:48:46;;;;;;;4.60;3.08;;;;;;;10.48;47.68;96818.28;5014273;28;20692;-49
2021/04/03 10:51:13;;;;;;;5.32;3.80;;;;;;;9.62;48.33;96812.47;5009804;28;20079;-49
2021/04/03 10:53:41;;;;;;;7.00;3.88;;;;;;;9.42;51.07;96810.69;5022913;28;20546;-48
2021/04/03 10:56:09;;;;;;;11.85;3.15;;;;;;;9.58;51.48;96815.50;4999299;28;20483;-47
2021/04/03 10:58:37;;;;;;;3.70;2.60;;;;;;;9.50;48.43;96814.38;5032332;28;20194;-50
2021/04/03 11:01:05;;;;;;;4.30;3.17;;;;;;;9.80;46.73;96809.25;5032801;28;20084;-49
2021/04/03 11:03:32;;;;;;;5.78;3.15;;;;;;;10.17;47.48;96814.81;4997324;28;20083;-47
2021/04/03 11:06:00;;;;;;;6.80;3.15;;;;;;;9.89;46.24;96819.00;5032199;28;20084;-51
2021/04/03 11:08:29;;;;;;;7.22;3.40;;;;;;;9.93;45.47;96815.13;4996756;28;20096;-47
2021/04/03 11:10:59;;;;;;;5.32;3.17;;;;;;;9.87;46.15;96819.13;5018519;28;20640;-50
2021/04/03 11:13:26;;;;;;;5.53;3.50;;;;;;;9.86;46.85;96816.63;4987733;28;20151;-48
2021/04/03 11:15:53;;;;;;;4.50;3.53;;;;;;;10.08;46.48;96805.91;5030757;28;20065;-48
2021/04/03 11:18:21;;;;;;;4.68;3.40;;;;;;;10.47;45.90;96808.69;5001987;28;20067;-45
2021/04/03 11:20:48;;;;;;;5.43;3.70;;;;;;;10.88;44.63;96804.19;5040170;28;20080;-47
2021/04/03 11:23:16;;;;;;;4.28;3.40;;;;;;;11.06;43.45;96801.69;4982457;28;20065;-47
2021/04/03 11:25:45;;;;;;;4.68;4.05;;;;;;;11.12;45.11;96807.25;5035743;28;20076;-46
2021/04/03 11:28:13;;;;;;;4.93;3.10;;;;;;;11.02;43.71;96808.22;5004890;28;20077;-46
2021/04/03 11:30:41;;;;;;;6.57;3.70;;;;;;;10.79;44.14;96805.84;5023174;28;20069;-48
2021/04/03 11:33:09;;;;;;;5.90;3.88;;;;;;;11.46;45.11;96798.88;5006464;28;20078;-48
2021/04/03 11:35:36;;;;;;;6.32;3.80;;;;;;;11.00;45.47;96794.31;5037296;28;20283;-47
2021/04/03 11:38:04;;;;;;;7.38;3.70;;;;;;;11.04;45.15;96793.88;5004138;28;20403;-46
2021/04/03 11:40:32;;;;;;;4.25;2.92;;;;;;;10.53;45.10;96802.03;5030066;28;20061;-48
2021/04/03 11:42:59;;;;;;;5.93;3.72;;;;;;;10.12;45.68;96807.31;4998069;28;20069;-48
2021/04/03 11:45:30;;;;;;;;;;;;;;;10.16;46.62;96815.78;5032212;28;20061;-53